Time;durP1;ratioP1;P1;durP2;ratioP2;P2;SDS_P1;SDS_P2;PMS_P1;PMS_P2;Temp;Humidity;BMP_temperature;BMP_pressure;BME280_temperature;BME280_humidity;BME280_pressure;Samples;Min_cycle;Max_cycle;Signal;HPM_P1;HPM_P2
2022/07/09 00:00:20;;;;;;;4.40;2.47;;;;;;;15.95;71.78;100831.13;4875907;29;20048;-69
2022/07/09 00:02:47;;;;;;;4.30;2.72;;;;;;;15.92;71.63;100828.63;4876215;29;20049;-69
2022/07/09 00:05:13;;;;;;;4.40;2.47;;;;;;;15.88;71.73;100825.28;4874267;29;20063;-69
2022/07/09 00:07:40;;;;;;;5.15;2.60;;;;;;;15.80;71.98;100818.66;4875143;29;20577;-69
2022/07/09 00:10:07;;;;;;;6.55;3.30;;;;;;;15.79;71.86;100816.94;4874921;29;20055;-70
2022/07/09 00:12:34;;;;;;;3.42;2.67;;;;;;;15.76;72.13;100815.31;4874784;29;20055;-69
2022/07/09 00:15:00;;;;;;;5.20;3.03;;;;;;;15.73;72.46;100826.13;4873474;29;20053;-69
2022/07/09 00:17:29;;;;;;;4.55;2.78;;;;;;;15.71;72.36;100824.50;4875237;29;20059;-70
2022/07/09 00:19:56;;;;;;;5.85;3.20;;;;;;;15.68;72.64;100820.16;4875295;29;20072;-71
2022/07/09 00:22:23;;;;;;;9.73;2.50;;;;;;;15.67;72.45;100815.78;4881103;29;20059;-70
2022/07/09 00:24:49;;;;;;;4.88;2.95;;;;;;;15.68;72.48;100820.16;4875755;29;20049;-67
2022/07/09 00:27:16;;;;;;;4.35;2.80;;;;;;;15.68;72.34;100812.19;4875166;29;20080;-70
2022/07/09 00:29:42;;;;;;;4.20;2.92;;;;;;;15.70;72.39;100814.78;4874746;29;20056;-71
2022/07/09 00:32:09;;;;;;;4.45;2.42;;;;;;;15.71;71.83;100805.88;4874549;29;20479;-71
2022/07/09 00:34:37;;;;;;;5.72;2.83;;;;;;;15.65;72.11;100810.56;4873865;29;20064;-71
2022/07/09 00:37:05;;;;;;;3.92;2.30;;;;;;;15.63;72.20;100799.16;4874434;29;20544;-70
2022/07/09 00:39:34;;;;;;;4.30;2.50;;;;;;;15.62;72.27;100810.69;4874662;29;20073;-69
2022/07/09 00:42:05;;;;;;;4.38;2.35;;;;;;;15.61;72.45;100803.69;4874610;29;20053;-69
2022/07/09 00:44:31;;;;;;;4.82;2.90;;;;;;;15.59;72.47;100808.22;4873929;29;20049;-70
2022/07/09 00:46:58;;;;;;;5.95;3.05;;;;;;;15.61;72.36;100806.34;4874607;29;20053;-71
2022/07/09 00:49:28;;;;;;;8.38;3.25;;;;;;;15.59;72.38;100805.56;4874757;29;20055;-72
2022/07/09 00:51:57;;;;;;;3.95;2.63;;;;;;;15.58;73.03;100801.19;4875286;29;20056;-72
2022/07/09 00:54:24;;;;;;;4.35;2.95;;;;;;;15.52;73.03;100792.69;4874496;29;20841;-70
2022/07/09 00:56:52;;;;;;;5.70;2.65;;;;;;;15.53;73.01;100799.69;4874762;29;20052;-69
2022/07/09 00:59:19;;;;;;;6.78;3.20;;;;;;;15.52;73.24;100800.66;4874672;29;20051;-70
2022/07/09 01:01:46;;;;;;;7.30;3.15;;;;;;;15.43;73.51;100797.56;4867784;29;20454;-70
2022/07/09 01:04:12;;;;;;;6.55;2.72;;;;;;;15.44;73.34;100796.59;4873897;29;20548;-70
2022/07/09 01:06:39;;;;;;;9.20;2.92;;;;;;;15.42;73.57;100793.16;4874144;29;20045;-70
2022/07/09 01:09:08;;;;;;;8.18;4.30;;;;;;;15.39;73.72;100797.81;4874857;29;20044;-69
2022/07/09 01:11:34;;;;;;;4.55;2.67;;;;;;;15.37;73.93;100794.38;4874271;29;20045;-71
2022/07/09 01:14:01;;;;;;;4.72;2.83;;;;;;;15.34;73.89;100797.19;4874214;29;20072;-71
2022/07/09 01:16:32;;;;;;;4.13;2.65;;;;;;;15.27;73.99;100796.66;4873861;29;20057;-71
2022/07/09 01:18:59;;;;;;;5.63;2.95;;;;;;;15.22;74.26;100790.72;4881535;29;20403;-70
2022/07/09 01:21:27;;;;;;;9.27;3.25;;;;;;;15.18;74.48;100784.69;4873812;29;20057;-69
2022/07/09 01:23:54;;;;;;;4.82;2.67;;;;;;;15.17;74.55;100785.63;4873447;29;20425;-69
2022/07/09 01:26:21;;;;;;;8.68;3.22;;;;;;;15.15;74.54;100790.16;4873594;29;20057;-71
2022/07/09 01:28:48;;;;;;;3.92;2.88;;;;;;;15.06;75.10;100787.13;4873774;29;20057;-71
2022/07/09 01:31:15;;;;;;;6.75;2.70;;;;;;;14.99;75.39;100790.13;4873987;29;20140;-71
2022/07/09 01:33:42;;;;;;;6.28;3.25;;;;;;;14.90;75.36;100792.38;4873732;29;20136;-71
2022/07/09 01:36:09;;;;;;;7.60;3.45;;;;;;;14.90;76.03;100782.63;4873783;29;20056;-71
2022/07/09 01:38:37;;;;;;;6.63;2.80;;;;;;;14.94;75.58;100778.00;4873988;29;20051;-71
2022/07/09 01:41:04;;;;;;;5.85;2.40;;;;;;;14.96;75.50;100770.81;4873625;29;20048;-70
2022/07/09 01:43:33;;;;;;;7.35;2.72;;;;;;;14.96;75.51;100770.81;4874105;29;20135;-72
2022/07/09 01:46:00;;;;;;;5.38;2.97;;;;;;;14.95;75.12;100774.41;4873067;29;20165;-71
2022/07/09 01:48:26;;;;;;;5.47;2.90;;;;;;;14.93;75.59;100770.97;4873963;29;20051;-72
2022/07/09 01:50:54;;;;;;;6.63;3.50;;;;;;;14.89;75.66;100769.41;4873718;29;20057;-71
2022/07/09 01:53:20;;;;;;;7.38;4.38;;;;;;;14.91;75.53;100772.84;4873772;29;20049;-71
2022/07/09 01:55:48;;;;;;;5.45;2.47;;;;;;;14.90;75.69;100765.84;4872913;29;20049;-71
2022/07/09 01:58:15;;;;;;;4.30;2.50;;;;;;;14.90;75.90;100760.53;4875582;29;20059;-71
2022/07/09 02:00:42;;;;;;;6.07;3.25;;;;;;;14.91;75.58;100760.44;4877854;29;20139;-70
2022/07/09 02:03:08;;;;;;;6.45;2.50;;;;;;;14.90;75.55;100760.53;4878054;29;20053;-69
2022/07/09 02:05:35;;;;;;;7.55;3.17;;;;;;;14.89;75.61;100756.13;4876653;29;20128;-69
2022/07/09 02:08:01;;;;;;;8.18;3.22;;;;;;;14.89;75.61;100764.09;4877396;29;20068;-68
2022/07/09 02:10:28;;;;;;;4.50;2.30;;;;;;;14.85;75.83;100760.75;4877170;29;20063;-69
2022/07/09 02:12:56;;;;;;;4.43;2.40;;;;;;;14.83;76.13;100757.31;4877050;29;20049;-71
2022/07/09 02:15:23;;;;;;;4.90;2.78;;;;;;;14.81;76.01;100753.88;4875696;29;20049;-72
2022/07/09 02:17:49;;;;;;;8.25;4.03;;;;;;;14.78;75.91;100752.25;4894335;29;20048;-73
2022/07/09 02:20:16;;;;;;;4.63;2.75;;;;;;;14.74;76.25;100742.75;4877113;29;20063;-69
2022/07/09 02:22:43;;;;;;;9.60;3.47;;;;;;;14.71;76.62;100752.63;4877031;29;20137;-72
2022/07/09 02:25:09;;;;;;;4.47;3.35;;;;;;;14.66;76.82;100746.72;4877282;29;20059;-68
2022/07/09 02:27:36;;;;;;;4.82;2.70;;;;;;;14.61;76.82;100741.63;4877590;29;20386;-70
2022/07/09 02:30:05;;;;;;;7.05;3.03;;;;;;;14.64;76.91;100743.25;4877090;29;20069;-69
2022/07/09 02:32:31;;;;;;;9.75;3.00;;;;;;;14.69;76.40;100742.09;4876913;29;20060;-69
2022/07/09 02:34:58;;;;;;;6.45;3.13;;;;;;;14.70;76.39;100743.81;4876770;29;20101;-68
2022/07/09 02:37:25;;;;;;;4.63;3.45;;;;;;;14.72;76.30;100741.09;4877459;29;20083;-70
2022/07/09 02:39:51;;;;;;;3.65;3.10;;;;;;;14.71;76.38;100753.50;4877630;29;20059;-73
2022/07/09 02:42:18;;;;;;;3.65;2.80;;;;;;;14.70;76.36;100754.44;4878341;29;20059;-69
2022/07/09 02:44:44;;;;;;;6.43;3.20;;;;;;;14.68;76.65;100739.53;4878116;29;20156;-69
2022/07/09 02:47:12;;;;;;;4.53;2.60;;;;;;;14.67;76.67;100746.63;4876951;29;20055;-71
2022/07/09 02:49:39;;;;;;;6.38;3.47;;;;;;;14.66;76.46;100744.06;4878094;29;20052;-74
2022/07/09 02:52:06;;;;;;;4.35;2.67;;;;;;;14.65;76.37;100745.84;4876870;29;20136;-72
2022/07/09 02:54:34;;;;;;;6.60;3.75;;;;;;;14.62;76.36;100746.00;4876170;29;20049;-70
2022/07/09 02:57:01;;;;;;;4.20;3.08;;;;;;;14.62;76.21;100746.00;4876705;29;20053;-72
2022/07/09 02:59:27;;;;;;;7.22;3.95;;;;;;;14.52;76.82;100740.28;4876388;29;20057;-72
2022/07/09 03:01:54;;;;;;;9.75;3.95;;;;;;;14.44;77.31;100744.25;4876186;29;20168;-73
2022/07/09 03:04:22;;;;;;;7.05;3.65;;;;;;;14.38;77.56;100740.97;4875187;29;20063;-70
2022/07/09 03:06:49;;;;;;;7.05;3.72;;;;;;;14.41;77.10;100741.75;4875463;29;20077;-70
2022/07/09 03:09:15;;;;;;;6.13;3.40;;;;;;;14.43;77.27;100737.22;4875197;29;20059;-69
2022/07/09 03:11:42;;;;;;;4.85;3.13;;;;;;;14.43;77.50;100742.53;4883838;29;20049;-72
2022/07/09 03:14:08;;;;;;;4.40;3.05;;;;;;;14.41;77.18;100731.13;4875651;29;20480;-70
2022/07/09 03:16:35;;;;;;;5.20;2.88;;;;;;;14.40;77.26;100727.63;4875763;29;20045;-73
2022/07/09 03:19:01;;;;;;;9.55;3.40;;;;;;;14.31;77.21;100736.88;4875806;29;20049;-68
2022/07/09 03:21:29;;;;;;;6.38;2.80;;;;;;;14.23;77.75;100732.91;4875853;29;20076;-72
2022/07/09 03:23:56;;;;;;;5.25;3.10;;;;;;;14.23;78.25;100727.63;4875198;29;20053;-70
2022/07/09 03:26:22;;;;;;;6.75;3.45;;;;;;;14.22;78.24;100725.88;4875289;29;20049;-69
2022/07/09 03:28:49;;;;;;;9.73;4.10;;;;;;;14.18;78.37;100734.00;4875167;29;20045;-69
2022/07/09 03:31:16;;;;;;;3.67;2.95;;;;;;;14.23;78.59;100728.47;4875534;29;20144;-69
2022/07/09 03:33:42;;;;;;;4.85;2.90;;;;;;;14.27;77.96;100726.50;4875628;29;20136;-72
2022/07/09 03:36:09;;;;;;;4.18;3.00;;;;;;;14.28;77.85;100725.59;4875437;29;20502;-72
2022/07/09 03:38:37;;;;;;;9.75;3.10;;;;;;;14.30;77.53;100729.00;4875907;29;20041;-69
2022/07/09 03:41:04;;;;;;;6.35;3.30;;;;;;;14.28;77.63;100728.25;4875891;29;20052;-69
2022/07/09 03:43:31;;;;;;;6.90;3.60;;;;;;;14.26;77.99;100728.31;4875588;29;20136;-71
2022/07/09 03:45:58;;;;;;;5.55;3.33;;;;;;;14.22;77.80;100729.38;4874681;29;20041;-69
2022/07/09 03:48:25;;;;;;;7.35;3.80;;;;;;;14.25;78.18;100728.38;4875547;29;20543;-71
2022/07/09 03:50:51;;;;;;;6.40;3.10;;;;;;;14.23;78.28;100728.47;4876099;29;20059;-69
2022/07/09 03:53:18;;;;;;;7.70;3.80;;;;;;;14.24;78.07;100735.47;4876381;29;20056;-70
2022/07/09 03:55:49;;;;;;;4.40;3.10;;;;;;;14.28;77.97;100736.19;4875075;29;20132;-68
2022/07/09 03:58:16;;;;;;;9.93;3.47;;;;;;;14.30;77.71;100739.59;4875651;29;20075;-70
2022/07/09 04:00:43;;;;;;;6.72;3.40;;;;;;;14.33;77.49;100736.81;4874928;29;20464;-72
2022/07/09 04:03:09;;;;;;;9.50;3.58;;;;;;;14.29;77.74;100725.50;4875741;29;20053;-70
2022/07/09 04:05:36;;;;;;;4.63;2.83;;;;;;;14.27;78.36;100730.00;4874034;29;20387;-69
2022/07/09 04:08:02;;;;;;;7.40;3.05;;;;;;;14.34;77.97;100735.88;4882609;29;20059;-69
2022/07/09 04:10:29;;;;;;;5.40;3.05;;;;;;;14.40;77.63;100740.91;4875276;29;20049;-73
2022/07/09 04:12:57;;;;;;;6.07;3.42;;;;;;;14.43;77.75;100732.78;4874802;29;20045;-71
2022/07/09 04:15:23;;;;;;;3.78;3.30;;;;;;;14.45;77.64;100736.22;4873820;29;20049;-72
2022/07/09 04:17:50;;;;;;;7.45;3.30;;;;;;;14.48;77.81;100735.19;4874957;29;20053;-71
2022/07/09 04:20:19;;;;;;;7.40;3.78;;;;;;;14.52;77.25;100739.41;4874766;29;20501;-72
2022/07/09 04:22:45;;;;;;;5.60;3.38;;;;;;;14.55;77.57;100736.66;4875856;29;20045;-74
2022/07/09 04:25:12;;;;;;;6.43;3.42;;;;;;;14.58;77.40;100729.38;4877554;29;20514;-70
2022/07/09 04:27:39;;;;;;;6.15;3.30;;;;;;;14.62;77.44;100724.78;4891491;29;20074;-70
2022/07/09 04:30:08;;;;;;;7.57;4.13;;;;;;;14.65;77.20;100727.28;4882588;29;20132;-71
2022/07/09 04:32:35;;;;;;;4.28;3.03;;;;;;;14.67;76.94;100730.72;4875292;29;20057;-71
2022/07/09 04:35:01;;;;;;;7.85;3.80;;;;;;;14.72;77.46;100725.19;4874468;29;20184;-73
2022/07/09 04:37:28;;;;;;;5.00;3.92;;;;;;;14.74;77.26;100726.81;4875842;29;20139;-72
2022/07/09 04:39:55;;;;;;;7.63;3.38;;;;;;;14.79;77.23;100732.75;4888180;29;20139;-72
2022/07/09 04:42:21;;;;;;;7.95;4.40;;;;;;;14.89;76.99;100730.47;4888103;29;20547;-70
2022/07/09 04:44:48;;;;;;;8.65;3.55;;;;;;;14.94;77.03;100727.53;4891652;29;20049;-73
2022/07/09 04:47:16;;;;;;;9.55;4.78;;;;;;;15.04;76.61;100731.47;4894635;29;20667;-70
2022/07/09 04:49:42;;;;;;;8.25;4.28;;;;;;;15.10;76.53;100738.25;4889563;29;20048;-69
2022/07/09 04:52:09;;;;;;;5.88;3.67;;;;;;;15.14;76.59;100737.16;4875283;29;20127;-71
2022/07/09 04:54:35;;;;;;;6.38;3.88;;;;;;;15.19;76.34;100733.28;4873940;29;20045;-70
2022/07/09 04:57:02;;;;;;;6.63;4.43;;;;;;;15.27;76.21;100724.91;4874298;29;20060;-70
2022/07/09 04:59:29;;;;;;;7.88;3.67;;;;;;;15.38;76.10;100732.28;4874219;29;20056;-73
2022/07/09 05:01:55;;;;;;;6.63;4.55;;;;;;;15.50;75.61;100728.97;4874377;29;20171;-72
2022/07/09 05:04:23;;;;;;;6.20;4.07;;;;;;;15.61;75.33;100737.22;4881436;29;20052;-69
2022/07/09 05:06:49;;;;;;;8.85;4.28;;;;;;;15.72;75.35;100735.81;4874068;29;20055;-70
2022/07/09 05:09:16;;;;;;;6.13;3.58;;;;;;;15.85;74.84;100735.06;4874182;29;20076;-71
2022/07/09 05:11:43;;;;;;;5.57;3.80;;;;;;;16.00;74.76;100736.00;4873584;29;20053;-73
2022/07/09 05:14:09;;;;;;;7.68;4.13;;;;;;;16.12;74.33;100737.09;4873751;29;20056;-72
2022/07/09 05:16:36;;;;;;;7.53;4.75;;;;;;;16.27;73.79;100736.22;4873579;29;20049;-73
2022/07/09 05:19:02;;;;;;;11.05;4.95;;;;;;;16.39;73.77;100739.09;4874050;29;20059;-72
2022/07/09 05:21:30;;;;;;;7.85;4.78;;;;;;;16.49;73.38;100741.16;4873671;29;20092;-72
2022/07/09 05:23:57;;;;;;;6.25;4.40;;;;;;;16.58;73.37;100733.56;4873235;29;20053;-73
2022/07/09 05:26:23;;;;;;;9.18;4.90;;;;;;;16.71;72.97;100739.84;4873648;29;20048;-71
2022/07/09 05:28:50;;;;;;;5.15;3.15;;;;;;;16.83;72.80;100739.16;4873945;29;20068;-71
2022/07/09 05:31:16;;;;;;;8.23;3.78;;;;;;;16.97;71.46;100734.81;4873562;29;20055;-71
2022/07/09 05:33:43;;;;;;;8.90;4.78;;;;;;;17.10;71.01;100739.28;4873253;29;20057;-72
2022/07/09 05:36:10;;;;;;;9.88;4.85;;;;;;;17.27;70.70;100738.25;4873280;29;20056;-70
2022/07/09 05:38:37;;;;;;;9.80;4.93;;;;;;;17.49;69.99;100736.91;4873881;29;20045;-71
2022/07/09 05:41:04;;;;;;;5.05;3.92;;;;;;;17.83;68.72;100738.34;4874085;29;20132;-71
2022/07/09 05:43:31;;;;;;;9.35;4.88;;;;;;;18.19;67.34;100735.09;4873857;29;20140;-71
2022/07/09 05:45:57;;;;;;;7.05;4.50;;;;;;;18.56;67.33;100732.63;4872778;29;20502;-71
2022/07/09 05:48:25;;;;;;;6.13;3.38;;;;;;;18.88;67.24;100735.81;4873614;29;20053;-71
2022/07/09 05:50:52;;;;;;;6.63;5.07;;;;;;;19.08;64.64;100736.25;4873826;29;20048;-70
2022/07/09 05:53:18;;;;;;;6.32;3.67;;;;;;;19.17;64.53;100730.25;4873555;29;20399;-70
2022/07/09 05:55:46;;;;;;;6.03;3.90;;;;;;;19.27;64.18;100730.44;4872885;29;20053;-71
2022/07/09 05:58:13;;;;;;;7.43;4.63;;;;;;;19.37;63.65;100720.84;4873294;29;20132;-72
2022/07/09 06:00:39;;;;;;;7.50;5.72;;;;;;;19.47;63.43;100721.03;4881452;29;20412;-69
2022/07/09 06:03:06;;;;;;;9.18;5.00;;;;;;;19.60;62.65;100721.84;4873492;29;20053;-71
2022/07/09 06:05:32;;;;;;;7.85;4.47;;;;;;;19.57;63.22;100724.75;4872445;29;20053;-71
2022/07/09 06:07:59;;;;;;;9.27;5.30;;;;;;;19.60;63.35;100723.69;4872882;29;20063;-71
2022/07/09 06:10:26;;;;;;;7.45;4.95;;;;;;;19.65;63.03;100722.38;4873375;29;20055;-71
2022/07/09 06:12:54;;;;;;;7.97;6.20;;;;;;;19.81;62.22;100729.31;4873544;29;20147;-71
2022/07/09 06:15:20;;;;;;;9.55;4.40;;;;;;;19.86;62.65;100733.41;4872601;29;20060;-72
2022/07/09 06:17:50;;;;;;;9.48;5.25;;;;;;;19.82;62.83;100731.91;4872884;29;20124;-72
2022/07/09 06:20:17;;;;;;;6.80;4.70;;;;;;;19.86;62.83;100724.47;4873150;29;20057;-71
2022/07/09 06:22:43;;;;;;;7.63;5.43;;;;;;;19.95;61.83;100730.03;4873362;29;20516;-72
2022/07/09 06:25:10;;;;;;;13.63;6.00;;;;;;;20.10;61.58;100727.19;4872955;29;20057;-71
2022/07/09 06:27:37;;;;;;;8.98;6.10;;;;;;;20.05;61.71;100719.50;4873448;29;20053;-72
2022/07/09 06:30:06;;;;;;;12.57;5.70;;;;;;;20.16;61.39;100718.72;4873220;29;20055;-71
2022/07/09 06:32:33;;;;;;;8.10;5.45;;;;;;;20.15;61.43;100716.97;4884868;29;20052;-71
2022/07/09 06:34:59;;;;;;;10.40;6.38;;;;;;;20.15;61.18;100714.31;4890843;29;20079;-73
2022/07/09 06:37:26;;;;;;;6.65;4.35;;;;;;;20.30;61.47;100710.47;4891686;29;20052;-71
2022/07/09 06:39:55;;;;;;;5.32;3.45;;;;;;;20.43;59.85;100714.91;4892061;29;20055;-71
2022/07/09 06:42:22;;;;;;;5.00;3.13;;;;;;;20.50;59.51;100718.84;4885195;29;20099;-72
2022/07/09 06:44:49;;;;;;;8.30;4.53;;;;;;;20.65;59.27;100719.50;4875074;29;20063;-71
2022/07/09 06:47:17;;;;;;;6.03;4.60;;;;;;;20.71;58.98;100711.88;4876627;29;20076;-70
2022/07/09 06:49:44;;;;;;;10.35;5.13;;;;;;;20.77;58.94;100711.41;4876711;29;20057;-72
2022/07/09 06:52:10;;;;;;;14.77;4.93;;;;;;;20.71;58.86;100708.34;4876872;29;20060;-72
2022/07/09 06:54:37;;;;;;;9.07;5.55;;;;;;;20.71;58.86;100703.84;4875986;29;20049;-71
2022/07/09 06:57:06;;;;;;;10.82;5.95;;;;;;;20.78;58.25;100714.94;4883953;29;20049;-71
2022/07/09 06:59:33;;;;;;;6.78;3.78;;;;;;;20.81;57.78;100709.34;4876362;29;20141;-72
2022/07/09 07:01:59;;;;;;;5.63;3.22;;;;;;;20.84;58.04;100708.25;4875461;29;20081;-71
2022/07/09 07:04:27;;;;;;;6.78;3.90;;;;;;;20.90;57.85;100714.00;4875624;29;20399;-72
2022/07/09 07:06:54;;;;;;;8.02;4.40;;;;;;;20.99;57.19;100709.72;4875814;29;20045;-71
2022/07/09 07:09:22;;;;;;;9.32;3.50;;;;;;;21.06;56.89;100720.84;4874955;29;20509;-72
2022/07/09 07:11:48;;;;;;;4.25;3.13;;;;;;;21.10;56.64;100717.78;4875846;29;20124;-71
2022/07/09 07:14:15;;;;;;;5.10;3.38;;;;;;;21.14;55.87;100715.72;4875222;29;20053;-72
2022/07/09 07:16:42;;;;;;;6.63;3.88;;;;;;;21.17;56.52;100716.34;4875400;29;20041;-70
2022/07/09 07:19:10;;;;;;;6.55;2.75;;;;;;;21.23;56.71;100718.53;4875769;29;20049;-71
2022/07/09 07:21:38;;;;;;;4.57;2.90;;;;;;;21.36;55.44;100714.88;4874731;29;20049;-71
2022/07/09 07:24:05;;;;;;;4.53;2.58;;;;;;;21.39;55.60;100723.56;4875125;29;20049;-71
2022/07/09 07:26:32;;;;;;;11.25;2.83;;;;;;;21.51;54.64;100721.75;4875249;29;20056;-71
2022/07/09 07:28:59;;;;;;;4.47;2.78;;;;;;;21.61;54.21;100721.84;4875078;29;20101;-71
2022/07/09 07:31:25;;;;;;;3.67;2.20;;;;;;;21.72;54.63;100727.19;4875533;29;20129;-73
2022/07/09 07:33:52;;;;;;;3.47;2.40;;;;;;;21.89;53.03;100723.13;4875085;29;20105;-70
2022/07/09 07:36:19;;;;;;;5.55;2.95;;;;;;;22.16;52.69;100730.75;4875858;29;20049;-70
2022/07/09 07:38:47;;;;;;;6.68;2.70;;;;;;;22.26;52.40;100722.81;4876367;29;20057;-72
2022/07/09 07:41:16;;;;;;;7.45;4.10;;;;;;;22.07;52.88;100728.81;4880277;29;20060;-69
2022/07/09 07:43:43;;;;;;;6.40;2.65;;;;;;;22.07;53.07;100724.28;4884422;29;20049;-68
2022/07/09 07:46:10;;;;;;;6.07;2.45;;;;;;;22.06;53.27;100735.19;4893846;29;20060;-57
2022/07/09 07:48:36;;;;;;;7.90;3.20;;;;;;;22.16;52.65;100727.22;4894217;29;20759;-51
2022/07/09 07:51:03;;;;;;;3.50;2.22;;;;;;;22.25;52.41;100718.44;4888307;29;20057;-53
2022/07/09 07:53:31;;;;;;;3.45;2.55;;;;;;;22.36;52.47;100714.84;4882686;29;20053;-54
2022/07/09 07:56:00;;;;;;;7.20;3.17;;;;;;;22.41;52.87;100709.94;4876985;29;20053;-58
2022/07/09 07:58:27;;;;;;;6.40;3.60;;;;;;;22.33;53.31;100715.09;4886358;29;20052;-58
2022/07/09 08:00:53;;;;;;;6.57;3.42;;;;;;;22.46;52.74;100723.84;4889873;29;20523;-55
2022/07/09 08:03:21;;;;;;;5.68;3.00;;;;;;;22.50;53.38;100726.13;4886500;29;20059;-57
2022/07/09 08:05:48;;;;;;;4.57;3.05;;;;;;;22.32;52.90;100727.66;4894231;29;20041;-57
2022/07/09 08:08:14;;;;;;;8.40;3.60;;;;;;;22.23;53.29;100723.94;4894228;29;20350;-56
2022/07/09 08:10:41;;;;;;;6.63;3.60;;;;;;;22.42;52.48;100715.19;4879401;29;20140;-55
2022/07/09 08:13:11;;;;;;;6.90;3.17;;;;;;;22.51;52.23;100724.28;4874876;29;20556;-58
2022/07/09 08:15:38;;;;;;;4.13;2.80;;;;;;;22.51;51.74;100722.44;4873897;29;20706;-59
2022/07/09 08:18:05;;;;;;;4.57;2.45;;;;;;;22.59;51.64;100720.94;4874411;29;20044;-58
2022/07/09 08:20:31;;;;;;;4.60;3.08;;;;;;;22.79;51.58;100712.06;4874711;29;20067;-58
2022/07/09 08:22:58;;;;;;;7.60;3.30;;;;;;;22.84;51.63;100706.25;4874062;29;20591;-58
2022/07/09 08:25:24;;;;;;;5.97;3.70;;;;;;;22.87;50.85;100712.25;4873471;29;20543;-57
2022/07/09 08:27:51;;;;;;;6.32;3.15;;;;;;;22.61;51.36;100709.09;4874036;29;20140;-55
2022/07/09 08:30:19;;;;;;;5.47;3.28;;;;;;;22.76;51.33;100688.09;4876892;29;20048;-56
2022/07/09 08:32:45;;;;;;;9.85;3.33;;;;;;;22.79;51.88;100682.50;4887297;29;20064;-51
2022/07/09 08:35:12;;;;;;;3.22;2.70;;;;;;;22.85;49.81;100689.16;4872590;29;20051;-52
2022/07/09 08:37:38;;;;;;;4.90;2.70;;;;;;;22.92;49.55;100698.41;4889535;29;20052;-55
2022/07/09 08:40:07;;;;;;;3.47;2.55;;;;;;;22.84;50.15;100688.31;4874321;29;20755;-53
2022/07/09 08:42:33;;;;;;;7.32;2.85;;;;;;;22.79;50.51;100679.78;4882114;29;20060;-53
2022/07/09 08:45:00;;;;;;;6.18;3.50;;;;;;;22.97;49.84;100692.63;4892238;29;20048;-65
2022/07/09 08:47:30;;;;;;;6.47;2.90;;;;;;;23.00;49.66;100692.38;4879115;29;20050;-68
2022/07/09 08:49:59;;;;;;;7.15;2.53;;;;;;;22.94;50.30;100689.22;4884352;29;20040;-56
2022/07/09 08:52:26;;;;;;;5.53;2.50;;;;;;;23.25;49.37;100685.69;4892746;29;20071;-55
2022/07/09 08:54:54;;;;;;;3.70;2.25;;;;;;;23.51;49.17;100691.47;4878768;29;20576;-54
2022/07/09 08:57:21;;;;;;;6.00;2.50;;;;;;;23.73;48.42;100693.97;4885060;29;20045;-53
2022/07/09 08:59:48;;;;;;;8.70;2.40;;;;;;;23.84;47.94;100689.44;4892654;29;20082;-55
2022/07/09 09:02:14;;;;;;;5.18;2.85;;;;;;;24.05;47.10;100684.81;4892412;29;20048;-56
2022/07/09 09:04:42;;;;;;;6.20;2.65;;;;;;;24.41;46.32;100685.06;4892438;29;20080;-58
2022/07/09 09:07:14;;;;;;;7.03;2.08;;;;;;;24.67;45.21;100687.22;4878431;29;20413;-51
2022/07/09 09:09:41;;;;;;;3.50;2.00;;;;;;;24.93;43.88;100682.88;4874317;29;20468;-52
2022/07/09 09:12:08;;;;;;;10.82;3.28;;;;;;;25.41;44.03;100675.63;4872982;29;20041;-54
2022/07/09 09:14:34;;;;;;;6.40;2.47;;;;;;;25.63;43.01;100671.69;4872496;29;20064;-52
2022/07/09 09:17:05;;;;;;;2.50;1.60;;;;;;;25.75;41.87;100675.03;4876004;29;20054;-51
2022/07/09 09:19:31;;;;;;;3.40;1.83;;;;;;;25.32;43.01;100676.53;4883734;29;20056;-54
2022/07/09 09:21:59;;;;;;;3.90;2.25;;;;;;;25.12;43.36;100673.88;4892190;29;20041;-56
2022/07/09 09:24:28;;;;;;;2.45;1.90;;;;;;;25.03;43.95;100670.22;4887806;29;20052;-50
2022/07/09 09:26:57;;;;;;;3.63;2.22;;;;;;;25.35;43.01;100657.31;4874061;29;20052;-49
2022/07/09 09:29:24;;;;;;;5.00;2.40;;;;;;;25.93;42.30;100654.28;4873871;29;20716;-72
2022/07/09 09:31:50;;;;;;;5.47;2.20;;;;;;;26.79;40.61;100656.38;4873628;29;20074;-70
2022/07/09 09:34:18;;;;;;;7.88;1.88;;;;;;;27.50;38.75;100657.91;4872907;29;20057;-70
2022/07/09 09:36:46;;;;;;;2.95;1.70;;;;;;;27.58;37.99;100649.81;4873929;29;20096;-71
2022/07/09 09:39:16;;;;;;;2.65;1.92;;;;;;;28.19;37.00;100652.31;4873831;29;20067;-71
2022/07/09 09:41:44;;;;;;;4.30;2.05;;;;;;;29.04;35.23;100647.31;4873595;29;20051;-70
2022/07/09 09:44:13;;;;;;;4.50;2.05;;;;;;;29.48;34.57;100652.22;4872517;29;20502;-71
2022/07/09 09:46:42;;;;;;;2.95;2.10;;;;;;;30.13;33.70;100636.56;4881217;29;20045;-71
2022/07/09 09:49:12;;;;;;;5.60;2.10;;;;;;;30.63;32.47;100635.09;4872087;29;20048;-72
2022/07/09 09:51:47;;;;;;;3.10;1.98;;;;;;;30.72;31.12;100630.44;4873577;29;20140;-72
2022/07/09 09:54:16;;;;;;;5.00;1.67;;;;;;;30.82;31.43;100631.00;4872963;29;20049;-70
2022/07/09 09:56:43;;;;;;;3.15;1.90;;;;;;;30.45;31.63;100643.63;4873906;29;20068;-68
2022/07/09 09:59:10;;;;;;;3.60;1.73;;;;;;;30.28;31.99;100642.09;4875784;29;20082;-70
2022/07/09 10:01:38;;;;;;;3.47;1.67;;;;;;;30.22;32.80;100630.00;4874370;29;20047;-70
2022/07/09 10:04:05;;;;;;;4.05;1.92;;;;;;;29.79;33.14;100629.66;4873023;29;20053;-69
2022/07/09 10:06:33;;;;;;;3.95;2.00;;;;;;;29.79;33.98;100623.41;4873278;29;20596;-71
2022/07/09 10:09:02;;;;;;;8.55;1.73;;;;;;;29.70;33.73;100625.31;4873540;29;20406;-71
2022/07/09 10:11:40;;;;;;;7.53;2.08;;;;;;;29.20;34.48;100621.16;4872854;29;20049;-70
2022/07/09 10:14:08;;;;;;;2.78;1.77;;;;;;;28.47;35.94;100614.88;4870916;29;20053;-73
2022/07/09 10:16:38;;;;;;;3.95;2.22;;;;;;;28.77;36.37;100618.72;4872938;29;20053;-72
2022/07/09 10:19:06;;;;;;;5.20;3.00;;;;;;;28.60;37.06;100608.91;4875149;29;20132;-73
2022/07/09 10:21:38;;;;;;;4.25;2.42;;;;;;;29.32;35.62;100608.88;4876694;29;20041;-72
2022/07/09 10:24:06;;;;;;;5.13;2.45;;;;;;;29.86;35.16;100594.47;4875672;29;20049;-71
2022/07/09 10:26:44;;;;;;;2.95;1.95;;;;;;;29.24;35.22;100607.03;4876354;29;20071;-71
2022/07/09 10:29:26;;;;;;;5.53;2.70;;;;;;;29.67;35.29;100598.50;4877114;29;20101;-72
2022/07/09 10:31:53;;;;;;;5.82;2.13;;;;;;;29.31;34.41;100596.28;4876828;29;20037;-71
2022/07/09 10:34:46;;;;;;;4.43;1.83;;;;;;;28.46;35.52;100596.91;4876077;29;20059;-72
2022/07/09 10:37:12;;;;;;;6.38;2.50;;;;;;;27.84;36.64;100597.41;4876468;29;20049;-73
2022/07/09 10:39:39;;;;;;;5.43;2.35;;;;;;;28.20;36.29;100599.78;4876368;29;20067;-70
2022/07/09 10:42:17;;;;;;;3.67;2.20;;;;;;;28.69;35.60;100599.72;4883942;29;20045;-70
2022/07/09 10:44:45;;;;;;;3.22;1.98;;;;;;;27.94;37.27;100608.09;4875624;29;20049;-69
2022/07/09 10:47:11;;;;;;;4.30;2.58;;;;;;;27.31;38.43;100604.88;4876814;29;20061;-71
2022/07/09 10:49:38;;;;;;;5.88;2.53;;;;;;;27.67;38.18;100603.78;4866569;29;20049;-69
2022/07/09 10:52:06;;;;;;;8.60;2.90;;;;;;;27.33;38.68;100596.59;4875427;29;20045;-71
2022/07/09 10:54:33;;;;;;;4.40;2.55;;;;;;;27.59;38.68;100594.63;4875245;29;20083;-70
2022/07/09 10:57:00;;;;;;;5.15;2.40;;;;;;;27.89;38.19;100586.91;4876362;29;20063;-69
2022/07/09 10:59:28;;;;;;;4.82;3.03;;;;;;;27.45;39.17;100579.03;4875712;29;20052;-72
2022/07/09 11:01:55;;;;;;;6.75;2.70;;;;;;;27.32;39.55;100576.81;4875347;29;20136;-72
2022/07/09 11:04:29;;;;;;;9.60;2.95;;;;;;;26.59;40.39;100582.69;4875868;29;20048;-72
2022/07/09 11:06:56;;;;;;;9.47;3.13;;;;;;;25.94;41.81;100593.00;4877192;29;20052;-70
2022/07/09 11:09:23;;;;;;;7.82;2.80;;;;;;;25.70;42.38;100584.47;4876666;29;20061;-71
2022/07/09 11:11:50;;;;;;;5.93;2.72;;;;;;;25.78;41.50;100589.09;4876726;29;20059;-69
2022/07/09 11:14:17;;;;;;;10.73;3.20;;;;;;;25.96;41.79;100586.41;4876664;29;20063;-70
2022/07/09 11:16:54;;;;;;;6.28;2.90;;;;;;;25.90;42.28;100584.34;4878301;29;20108;-71
2022/07/09 11:19:21;;;;;;;6.35;2.92;;;;;;;26.20;42.16;100588.47;4879281;29;20061;-70
2022/07/09 11:21:48;;;;;;;5.72;2.70;;;;;;;26.29;42.06;100579.44;4877836;29;20049;-71
2022/07/09 11:24:16;;;;;;;4.35;2.80;;;;;;;26.06;42.67;100580.94;4877108;29;20044;-72